createdAt,value
2018-06-13T00:00:26.641Z,79.85
2018-06-13T00:01:32.150Z,79.95
2018-06-13T00:02:37.685Z,79.95
2018-06-13T00:03:43.180Z,80.43
2018-06-13T00:04:49.716Z,80.33
2018-06-13T00:05:54.220Z,79.85
2018-06-13T00:06:59.736Z,80.24
2018-06-13T00:08:05.244Z,80.24
2018-06-13T00:09:10.760Z,80.52
2018-06-13T00:10:16.345Z,80.52
2018-06-13T00:11:22.807Z,80.81
2018-06-13T00:12:27.308Z,80.81
2018-06-13T00:13:32.807Z,81.10
2018-06-13T00:14:38.325Z,81.29
2018-06-13T00:15:43.847Z,81.48
2018-06-13T00:16:49.366Z,81.00
2018-06-13T00:17:55.879Z,81.20
2018-06-13T00:19:00.380Z,81.57
2018-06-13T00:20:05.905Z,81.20
2018-06-13T00:21:11.419Z,81.20
2018-06-13T00:22:16.925Z,81.29
2018-06-13T00:23:22.439Z,81.20
2018-06-13T00:24:28.968Z,80.58
2018-06-13T00:25:33.468Z,81.20
2018-06-13T00:26:38.995Z,80.96
2018-06-13T00:27:44.491Z,80.81
2018-06-13T00:28:50.006Z,81.20
2018-06-13T00:29:55.523Z,81.00
2018-06-13T00:31:02.099Z,81.00
2018-06-13T00:32:06.545Z,81.10
2018-06-13T00:33:12.080Z,81.00
2018-06-13T00:34:17.582Z,81.20
2018-06-13T00:35:23.093Z,81.10
2018-06-13T00:36:28.598Z,81.00
2018-06-13T00:37:35.131Z,81.29
2018-06-13T00:38:39.640Z,81.00
2018-06-13T00:39:45.147Z,81.20
2018-06-13T00:40:50.663Z,81.38
2018-06-13T00:41:56.186Z,81.34
2018-06-13T00:43:01.698Z,81.20
2018-06-13T00:44:08.261Z,80.96
2018-06-13T00:45:12.829Z,81.25
2018-06-13T00:46:18.238Z,81.25
2018-06-13T00:47:23.750Z,80.96
2018-06-13T00:48:29.267Z,81.10
2018-06-13T00:49:34.771Z,81.34
2018-06-13T00:50:41.306Z,81.29
2018-06-13T00:51:45.806Z,81.00
2018-06-13T00:52:51.317Z,81.00
2018-06-13T00:53:56.827Z,81.20
2018-06-13T00:55:02.345Z,81.20
2018-06-13T00:56:07.876Z,81.57
2018-06-13T00:57:14.393Z,81.20
2018-06-13T00:58:18.893Z,80.71
2018-06-13T00:59:24.410Z,81.00
2018-06-13T01:00:29.928Z,81.29
2018-06-13T01:01:35.450Z,81.00
2018-06-13T01:02:40.948Z,81.20
2018-06-13T01:03:47.467Z,80.90
2018-06-13T01:04:51.973Z,80.43
2018-06-13T01:05:57.491Z,80.81
2018-06-13T01:07:03.009Z,80.71
2018-06-13T01:08:08.515Z,80.52
2018-06-13T01:09:14.031Z,80.62
2018-06-13T01:10:20.556Z,80.62
2018-06-13T01:11:25.063Z,80.81
2018-06-13T01:12:30.674Z,80.81
2018-06-13T01:13:36.089Z,80.62
2018-06-13T01:14:41.607Z,81.00
2018-06-13T01:15:47.206Z,80.71
2018-06-13T01:16:53.653Z,81.00
2018-06-13T01:17:58.167Z,80.62
2018-06-13T01:19:03.655Z,80.62
2018-06-13T01:20:09.174Z,80.62
2018-06-13T01:21:14.686Z,80.62
2018-06-13T01:22:20.204Z,80.33
2018-06-13T01:23:26.726Z,80.43
2018-06-13T01:24:31.224Z,80.52
2018-06-13T01:25:36.748Z,80.33
2018-06-13T01:26:42.256Z,80.81
2018-06-13T01:27:47.773Z,80.71
2018-06-13T01:28:53.289Z,80.81
2018-06-13T01:29:59.813Z,80.52
2018-06-13T01:31:04.315Z,80.62
2018-06-13T01:32:09.826Z,80.71
2018-06-13T01:33:15.349Z,80.81
2018-06-13T01:34:20.854Z,80.52
2018-06-13T01:35:26.371Z,81.00
2018-06-13T01:36:32.893Z,81.29
2018-06-13T01:37:37.400Z,81.20
2018-06-13T01:38:42.912Z,81.20
2018-06-13T01:39:48.429Z,81.29
2018-06-13T01:40:53.950Z,81.29
2018-06-13T01:41:59.464Z,81.20
2018-06-13T01:43:05.986Z,81.10
2018-06-13T01:44:10.497Z,81.20
2018-06-13T01:45:16.001Z,81.00
2018-06-13T01:46:21.518Z,81.29
2018-06-13T01:47:27.035Z,81.29
2018-06-13T01:48:32.579Z,81.00
2018-06-13T01:49:39.067Z,81.10
2018-06-13T01:50:43.575Z,81.00
2018-06-13T01:51:49.095Z,81.23
2018-06-13T01:52:54.600Z,81.38
2018-06-13T01:54:00.114Z,81.04
2018-06-13T01:55:05.630Z,81.04
2018-06-13T01:56:12.153Z,81.23
2018-06-13T01:57:16.658Z,81.20
2018-06-13T01:58:22.180Z,81.23
2018-06-13T01:59:27.690Z,81.43
2018-06-13T02:00:33.206Z,81.52
2018-06-13T02:01:38.712Z,81.23
2018-06-13T02:02:45.241Z,81.43
2018-06-13T02:03:49.750Z,80.90
2018-06-13T02:04:55.250Z,81.33
2018-06-13T02:06:00.766Z,81.38
2018-06-13T02:07:06.285Z,81.33
2018-06-13T02:08:11.801Z,81.71
2018-06-13T02:09:18.325Z,81.13
2018-06-13T02:10:22.832Z,81.23
2018-06-13T02:11:28.341Z,81.23
2018-06-13T02:12:33.874Z,81.43
2018-06-13T02:13:39.393Z,81.43
2018-06-13T02:14:44.891Z,81.52
2018-06-13T02:15:51.412Z,81.29
2018-06-13T02:16:55.918Z,81.71
2018-06-13T02:18:01.427Z,81.62
2018-06-13T02:19:06.942Z,80.94
2018-06-13T02:20:12.463Z,81.57
2018-06-13T02:21:17.977Z,81.33
2018-06-13T02:22:24.507Z,81.52
2018-06-13T02:23:29.003Z,81.38
2018-06-13T02:24:34.519Z,81.57
2018-06-13T02:25:40.029Z,81.33
2018-06-13T02:26:45.551Z,81.52
2018-06-13T02:27:51.060Z,81.52
2018-06-13T02:28:57.580Z,81.29
2018-06-13T02:30:02.090Z,81.20
2018-06-13T02:31:07.605Z,81.33
2018-06-13T02:32:13.121Z,81.77
2018-06-13T02:33:18.628Z,81.57
2018-06-13T02:34:24.154Z,81.20
2018-06-13T02:35:30.676Z,81.20
2018-06-13T02:36:35.183Z,81.67
2018-06-13T02:37:40.687Z,81.20
2018-06-13T02:38:46.213Z,81.77
2018-06-13T02:39:51.716Z,81.96
2018-06-13T02:40:57.230Z,82.06
2018-06-13T02:42:03.761Z,82.06
2018-06-13T02:43:08.301Z,81.86
2018-06-13T02:44:13.775Z,81.86
2018-06-13T02:45:19.290Z,81.48
2018-06-13T02:46:24.885Z,81.20
2018-06-13T02:47:30.321Z,81.48
2018-06-13T02:48:36.847Z,81.10
2018-06-13T02:49:41.352Z,81.20
2018-06-13T02:50:46.879Z,81.57
2018-06-13T02:51:52.376Z,81.20
2018-06-13T02:52:57.881Z,81.48
2018-06-13T02:54:03.409Z,81.77
2018-06-13T02:55:09.924Z,81.77
2018-06-13T02:56:14.441Z,81.86
2018-06-13T02:57:19.948Z,82.06
2018-06-13T02:58:25.471Z,81.77
2018-06-13T02:59:30.973Z,81.57
2018-06-13T03:00:36.509Z,81.48
2018-06-13T03:01:43.009Z,81.77
2018-06-13T03:02:47.548Z,81.67
2018-06-13T03:03:53.025Z,81.20
2018-06-13T03:04:58.548Z,81.38
2018-06-13T03:06:04.058Z,81.77
2018-06-13T03:07:09.570Z,81.57
2018-06-13T03:08:16.105Z,81.20
2018-06-13T03:09:20.594Z,81.38
2018-06-13T03:10:26.123Z,81.20
2018-06-13T03:11:31.660Z,81.48
2018-06-13T03:12:37.142Z,81.67
2018-06-13T03:13:42.654Z,81.77
2018-06-13T03:14:49.195Z,82.15
2018-06-13T03:15:53.681Z,81.67
2018-06-13T03:16:59.199Z,81.67
2018-06-13T03:18:04.720Z,81.67
2018-06-13T03:19:10.225Z,82.82
2018-06-13T03:20:15.736Z,82.15
2018-06-13T03:21:22.266Z,81.96
2018-06-13T03:22:26.766Z,81.57
2018-06-13T03:23:32.287Z,81.96
2018-06-13T03:24:37.801Z,81.86
2018-06-13T03:25:43.326Z,81.77
2018-06-13T03:26:48.825Z,81.86
2018-06-13T03:27:55.365Z,81.67
2018-06-13T03:28:59.855Z,81.96
2018-06-13T03:30:05.405Z,81.77
2018-06-13T03:31:10.886Z,81.67
2018-06-13T03:32:16.439Z,81.77
2018-06-13T03:33:21.909Z,81.57
2018-06-13T03:34:28.447Z,81.77
2018-06-13T03:35:32.932Z,81.77
2018-06-13T03:36:38.455Z,81.00
2018-06-13T03:37:43.970Z,80.81
2018-06-13T03:38:49.482Z,81.96
2018-06-13T03:39:54.995Z,81.10
2018-06-13T03:41:01.540Z,81.96
2018-06-13T03:42:06.029Z,81.77
2018-06-13T03:43:11.546Z,80.90
2018-06-13T03:44:17.053Z,81.57
2018-06-13T03:45:22.566Z,81.48
2018-06-13T03:46:28.080Z,81.57
2018-06-13T03:47:34.608Z,81.38
2018-06-13T03:48:39.116Z,81.96
2018-06-13T03:49:44.628Z,81.86
2018-06-13T03:50:50.139Z,81.90
2018-06-13T03:51:55.652Z,82.00
2018-06-13T03:53:01.181Z,81.86
2018-06-13T03:54:07.702Z,81.71
2018-06-13T03:55:12.201Z,81.62
2018-06-13T03:56:17.713Z,81.10
2018-06-13T03:57:23.226Z,81.29
2018-06-13T03:58:28.732Z,81.57
2018-06-13T03:59:34.249Z,81.90
2018-06-13T04:00:40.781Z,81.33
2018-06-13T04:01:45.313Z,81.33
2018-06-13T04:02:50.797Z,81.23
2018-06-13T04:03:56.321Z,81.38
2018-06-13T04:05:01.825Z,81.23
2018-06-13T04:06:07.351Z,81.77
2018-06-13T04:07:13.872Z,81.77
2018-06-13T04:08:18.365Z,81.00
2018-06-13T04:09:23.910Z,81.20
2018-06-13T04:10:29.410Z,81.57
2018-06-13T04:11:34.939Z,81.29
2018-06-13T04:12:40.427Z,81.67
2018-06-13T04:13:46.994Z,81.52
2018-06-13T04:14:51.519Z,81.62
2018-06-13T04:15:56.978Z,81.57
2018-06-13T04:17:02.496Z,81.43
2018-06-13T04:18:07.994Z,81.62
2018-06-13T04:19:13.518Z,81.13
2018-06-13T04:20:20.038Z,81.52
2018-06-13T04:21:24.539Z,81.43
2018-06-13T04:22:30.101Z,81.00
2018-06-13T04:23:35.565Z,81.33
2018-06-13T04:24:41.077Z,81.90
2018-06-13T04:25:46.589Z,81.38
2018-06-13T04:26:53.136Z,81.13
2018-06-13T04:27:57.625Z,81.52
2018-06-13T04:29:03.136Z,81.33
2018-06-13T04:30:08.658Z,81.23
2018-06-13T04:31:14.186Z,81.23
2018-06-13T04:32:19.682Z,81.04
2018-06-13T04:33:26.213Z,81.04
2018-06-13T04:34:30.711Z,81.33
2018-06-13T04:35:36.222Z,81.04
2018-06-13T04:36:41.737Z,81.38
2018-06-13T04:37:47.248Z,81.67
2018-06-13T04:38:52.766Z,81.90
2018-06-13T04:39:59.291Z,81.67
2018-06-13T04:41:03.800Z,81.90
2018-06-13T04:42:09.325Z,82.09
2018-06-13T04:43:14.823Z,82.09
2018-06-13T04:44:20.335Z,81.86
2018-06-13T04:45:25.854Z,81.96
2018-06-13T04:46:32.377Z,81.67
2018-06-13T04:47:36.886Z,81.86
2018-06-13T04:48:42.405Z,82.06
2018-06-13T04:49:47.911Z,81.86
2018-06-13T04:50:53.426Z,82.06
2018-06-13T04:51:58.934Z,82.73
2018-06-13T04:53:05.466Z,82.63
2018-06-13T04:54:09.972Z,83.15
2018-06-13T04:55:15.478Z,82.82
2018-06-13T04:56:20.999Z,81.96
2018-06-13T04:57:26.510Z,81.86
2018-06-13T04:58:32.023Z,82.06
2018-06-13T04:59:38.543Z,82.43
2018-06-13T05:00:43.051Z,82.82
2018-06-13T05:01:48.567Z,82.29
2018-06-13T05:02:54.080Z,81.77
2018-06-13T05:03:59.601Z,82.19
2018-06-13T05:05:05.148Z,82.73
2018-06-13T05:06:11.633Z,82.76
2018-06-13T05:07:16.146Z,83.01
2018-06-13T05:08:21.651Z,82.92
2018-06-13T05:09:27.167Z,82.38
2018-06-13T05:10:32.703Z,82.67
2018-06-13T05:11:38.186Z,82.67
2018-06-13T05:12:44.718Z,82.29
2018-06-13T05:13:49.219Z,82.29
2018-06-13T05:14:54.736Z,82.38
2018-06-13T05:16:00.242Z,82.00
2018-06-13T05:17:05.800Z,82.09
2018-06-13T05:18:11.285Z,81.90
2018-06-13T05:19:17.810Z,82.57
2018-06-13T05:20:22.299Z,81.81
2018-06-13T05:21:27.838Z,82.29
2018-06-13T05:22:33.336Z,82.38
2018-06-13T05:23:38.859Z,82.86
2018-06-13T05:24:44.370Z,82.00
2018-06-13T05:25:50.888Z,81.96
2018-06-13T05:26:55.391Z,82.00
2018-06-13T05:28:00.907Z,81.81
2018-06-13T05:29:06.426Z,81.90
2018-06-13T05:30:11.939Z,81.43
2018-06-13T05:31:17.452Z,81.81
2018-06-13T05:32:23.976Z,81.81
2018-06-13T05:33:28.489Z,81.52
2018-06-13T05:34:34.000Z,81.90
2018-06-13T05:35:39.520Z,81.90
2018-06-13T05:36:45.032Z,81.52
2018-06-13T05:37:50.536Z,81.90
2018-06-13T05:38:57.051Z,81.81
2018-06-13T05:40:01.571Z,82.19
2018-06-13T05:41:07.085Z,82.00
2018-06-13T05:42:12.589Z,81.81
2018-06-13T05:43:18.117Z,81.81
2018-06-13T05:44:23.619Z,82.09
2018-06-13T05:45:30.159Z,82.09
2018-06-13T05:46:34.650Z,81.90
2018-06-13T05:47:40.159Z,81.52
2018-06-13T05:48:45.679Z,81.52
2018-06-13T05:49:51.202Z,81.23
2018-06-13T05:50:56.703Z,81.62
2018-06-13T05:52:03.223Z,81.13
2018-06-13T05:53:07.739Z,81.52
2018-06-13T05:54:13.247Z,81.71
2018-06-13T05:55:18.763Z,81.81
2018-06-13T05:56:24.280Z,81.71
2018-06-13T05:57:29.787Z,81.33
2018-06-13T05:58:36.334Z,81.43
2018-06-13T05:59:40.820Z,81.90
2018-06-13T06:00:46.339Z,81.52
2018-06-13T06:01:51.850Z,81.43
2018-06-13T06:02:57.359Z,81.33
2018-06-13T06:04:02.871Z,81.04
2018-06-13T06:05:09.399Z,81.13
2018-06-13T06:06:13.908Z,81.04
2018-06-13T06:07:19.417Z,80.66
2018-06-13T06:08:24.945Z,81.04
2018-06-13T06:09:30.452Z,81.33
2018-06-13T06:10:36.069Z,81.13
2018-06-13T06:11:42.497Z,80.56
2018-06-13T06:12:46.989Z,80.27
2018-06-13T06:13:52.503Z,80.85
2018-06-13T06:14:58.017Z,80.76
2018-06-13T06:16:03.540Z,80.37
2018-06-13T06:17:09.050Z,80.76
2018-06-13T06:18:15.597Z,80.85
2018-06-13T06:19:20.080Z,80.94
2018-06-13T06:20:25.592Z,80.94
2018-06-13T06:21:31.116Z,79.99
2018-06-13T06:22:36.631Z,80.08
2018-06-13T06:23:42.169Z,79.80
2018-06-13T06:24:48.651Z,80.66
2018-06-13T06:25:53.162Z,80.66
2018-06-13T06:26:58.678Z,80.66
2018-06-13T06:28:04.189Z,80.85
2018-06-13T06:29:09.711Z,80.51
2018-06-13T06:30:15.217Z,80.22
2018-06-13T06:31:21.754Z,79.80
2018-06-13T06:32:26.257Z,80.22
2018-06-13T06:33:31.762Z,79.89
2018-06-13T06:34:37.301Z,80.08
2018-06-13T06:35:42.783Z,79.70
2018-06-13T06:36:48.303Z,79.03
2018-06-13T06:37:54.828Z,79.26
2018-06-13T06:38:59.339Z,79.45
2018-06-13T06:40:04.845Z,78.97
2018-06-13T06:41:10.404Z,78.97
2018-06-13T06:42:15.922Z,78.78
2018-06-13T06:43:21.395Z,79.07
2018-06-13T06:44:27.921Z,79.07
2018-06-13T06:45:32.417Z,79.74
2018-06-13T06:46:37.933Z,79.26
2018-06-13T06:47:43.448Z,78.02
2018-06-13T06:48:48.959Z,78.59
2018-06-13T06:49:54.483Z,78.30
2018-06-13T06:51:01.005Z,77.73
2018-06-13T06:52:05.511Z,77.82
2018-06-13T06:53:11.019Z,77.73
2018-06-13T06:54:16.535Z,78.20
2018-06-13T06:55:22.090Z,77.73
2018-06-13T06:56:27.570Z,77.73
2018-06-13T06:57:34.091Z,76.86
2018-06-13T06:58:38.598Z,76.48
2018-06-13T06:59:44.105Z,76.57
2018-06-13T07:00:49.630Z,76.29
2018-06-13T07:01:55.136Z,76.86
2018-06-13T07:03:00.654Z,77.34
2018-06-13T07:04:07.194Z,77.92
2018-06-13T07:05:11.676Z,77.44
2018-06-13T07:06:17.188Z,77.92
2018-06-13T07:07:22.713Z,77.73
2018-06-13T07:08:28.225Z,77.92
2018-06-13T07:09:33.738Z,78.30
2018-06-13T07:10:40.271Z,78.59
2018-06-13T07:11:44.785Z,78.20
2018-06-13T07:12:50.292Z,78.88
2018-06-13T07:13:55.808Z,78.78
2018-06-13T07:15:01.315Z,78.88
2018-06-13T07:16:06.837Z,79.16
2018-06-13T07:17:13.360Z,79.45
2018-06-13T07:18:17.860Z,78.78
2018-06-13T07:19:23.362Z,78.49
2018-06-13T07:20:28.890Z,77.63
2018-06-13T07:21:34.401Z,77.73
2018-06-13T07:22:39.927Z,77.82
2018-06-13T07:23:46.449Z,78.40
2018-06-13T07:24:51.005Z,78.02
2018-06-13T07:25:56.460Z,77.82
2018-06-13T07:27:01.992Z,77.63
2018-06-13T07:28:07.496Z,76.96
2018-06-13T07:29:13.011Z,76.67
2018-06-13T07:30:19.528Z,76.04
2018-06-13T07:31:24.047Z,76.19
2018-06-13T07:32:29.543Z,76.62
2018-06-13T07:33:35.064Z,76.52
2018-06-13T07:34:40.591Z,76.62
2018-06-13T07:35:46.098Z,75.85
2018-06-13T07:36:52.620Z,75.75
2018-06-13T07:37:57.139Z,75.27
2018-06-13T07:39:02.653Z,75.27
2018-06-13T07:40:08.151Z,75.18
2018-06-13T07:41:13.666Z,74.31
2018-06-13T07:42:19.195Z,75.18
2018-06-13T07:43:25.706Z,76.04
2018-06-13T07:44:30.220Z,75.56
2018-06-13T07:45:35.723Z,74.79
2018-06-13T07:46:41.261Z,75.37
2018-06-13T07:47:46.753Z,74.98
2018-06-13T07:48:52.268Z,74.12
2018-06-13T07:49:58.797Z,75.27
2018-06-13T07:51:03.294Z,75.27
2018-06-13T07:52:08.825Z,74.79
2018-06-13T07:53:14.335Z,74.98
2018-06-13T07:54:19.839Z,74.89
2018-06-13T07:55:25.359Z,74.22
2018-06-13T07:56:31.881Z,74.79
2018-06-13T07:57:36.389Z,72.97
2018-06-13T07:58:41.909Z,72.78
2018-06-13T07:59:47.415Z,73.83
2018-06-13T08:00:52.926Z,72.97
2018-06-13T08:01:58.467Z,72.88
2018-06-13T08:03:04.992Z,73.07
2018-06-13T08:04:09.469Z,73.83
2018-06-13T08:05:14.998Z,73.68
2018-06-13T08:06:20.546Z,72.33
2018-06-13T08:07:26.015Z,72.72
2018-06-13T08:08:31.709Z,73.10
2018-06-13T08:09:38.068Z,71.66
2018-06-13T08:10:42.580Z,71.37
2018-06-13T08:11:48.079Z,70.61
2018-06-13T08:12:53.592Z,70.03
2018-06-13T08:13:59.114Z,69.46
2018-06-13T08:15:04.621Z,69.56
2018-06-13T08:16:11.148Z,69.17
2018-06-13T08:17:15.659Z,70.03
2018-06-13T08:18:21.168Z,69.17
2018-06-13T08:19:26.681Z,69.07
2018-06-13T08:20:32.207Z,69.84
2018-06-13T08:21:37.719Z,70.32
2018-06-13T08:22:44.236Z,69.74
2018-06-13T08:23:48.741Z,69.56
2018-06-13T08:24:54.262Z,68.98
2018-06-13T08:25:59.767Z,69.26
2018-06-13T08:27:05.289Z,68.88
2018-06-13T08:28:10.855Z,68.59
2018-06-13T08:29:17.338Z,68.98
2018-06-13T08:30:21.835Z,68.50
2018-06-13T08:31:27.353Z,69.36
2018-06-13T08:32:32.857Z,69.93
2018-06-13T08:33:38.397Z,68.98
2018-06-13T08:34:43.897Z,68.98
2018-06-13T08:35:50.421Z,68.40
2018-06-13T08:36:54.922Z,68.50
2018-06-13T08:38:00.437Z,69.65
2018-06-13T08:39:05.966Z,70.13
2018-06-13T08:40:11.476Z,69.74
2018-06-13T08:41:16.986Z,69.84
2018-06-13T08:42:23.509Z,69.65
2018-06-13T08:43:28.013Z,69.93
2018-06-13T08:44:33.526Z,70.32
2018-06-13T08:45:39.047Z,69.56
2018-06-13T08:46:44.560Z,70.23
2018-06-13T08:47:50.074Z,70.99
2018-06-13T08:48:56.606Z,70.23
2018-06-13T08:50:01.104Z,70.23
2018-06-13T08:51:06.630Z,70.32
2018-06-13T08:52:12.140Z,70.03
2018-06-13T08:53:17.596Z,70.03
2018-06-13T08:54:23.163Z,70.99
2018-06-13T08:55:29.727Z,70.61
2018-06-13T08:56:34.202Z,69.93
2018-06-13T08:57:39.719Z,70.13
2018-06-13T08:58:45.228Z,70.90
2018-06-13T08:59:50.745Z,70.42
2018-06-13T09:00:56.274Z,70.13
2018-06-13T09:02:02.784Z,69.56
2018-06-13T09:03:07.290Z,70.42
2018-06-13T09:04:12.799Z,70.70
2018-06-13T09:05:18.316Z,69.74
2018-06-13T09:06:23.835Z,70.23
2018-06-13T09:07:29.353Z,70.23
2018-06-13T09:08:35.876Z,70.23
2018-06-13T09:09:40.381Z,70.23
2018-06-13T09:10:45.888Z,70.13
2018-06-13T09:11:51.410Z,70.23
2018-06-13T09:12:56.943Z,70.13
2018-06-13T09:14:02.447Z,69.93
2018-06-13T09:15:08.965Z,69.56
2018-06-13T09:16:13.470Z,70.03
2018-06-13T09:17:18.985Z,69.93
2018-06-13T09:18:24.501Z,69.84
2018-06-13T09:19:30.014Z,69.74
2018-06-13T09:20:35.530Z,70.42
2018-06-13T09:21:42.056Z,70.42
2018-06-13T09:22:46.566Z,70.13
2018-06-13T09:23:52.085Z,69.84
2018-06-13T09:24:57.587Z,70.03
2018-06-13T09:26:03.103Z,69.74
2018-06-13T09:27:08.621Z,70.42
2018-06-13T09:28:15.144Z,69.84
2018-06-13T09:29:19.653Z,70.26
2018-06-13T09:30:25.164Z,69.26
2018-06-13T09:31:30.678Z,69.65
2018-06-13T09:32:36.200Z,69.36
2018-06-13T09:33:41.725Z,69.26
2018-06-13T09:34:48.241Z,69.07
2018-06-13T09:35:52.734Z,69.84
2018-06-13T09:36:58.255Z,69.65
2018-06-13T09:38:03.779Z,70.13
2018-06-13T09:39:09.291Z,70.32
2018-06-13T09:40:14.804Z,70.23
2018-06-13T09:41:21.327Z,70.32
2018-06-13T09:42:25.841Z,69.93
2018-06-13T09:43:31.347Z,70.32
2018-06-13T09:44:36.864Z,70.23
2018-06-13T09:45:42.381Z,70.03
2018-06-13T09:46:49.054Z,70.13
2018-06-13T09:47:54.479Z,70.42
2018-06-13T09:48:58.989Z,70.13
2018-06-13T09:50:04.503Z,70.23
2018-06-13T09:51:09.954Z,71.19
2018-06-13T09:52:15.513Z,71.66
2018-06-13T09:53:20.982Z,72.05
2018-06-13T09:54:27.513Z,71.86
2018-06-13T09:55:32.027Z,71.86
2018-06-13T09:56:37.522Z,70.80
2018-06-13T09:57:43.040Z,70.70
2018-06-13T09:58:48.561Z,70.32
2018-06-13T09:59:54.073Z,70.13
2018-06-13T10:01:00.603Z,69.65
2018-06-13T10:02:05.138Z,70.32
2018-06-13T10:03:10.622Z,70.13
2018-06-13T10:04:16.146Z,70.61
2018-06-13T10:05:21.645Z,70.51
2018-06-13T10:06:27.157Z,70.61
2018-06-13T10:07:33.695Z,70.23
2018-06-13T10:08:38.201Z,70.17
2018-06-13T10:09:43.704Z,70.03
2018-06-13T10:10:49.230Z,69.78
2018-06-13T10:11:54.738Z,69.78
2018-06-13T10:13:00.314Z,69.59
2018-06-13T10:14:06.777Z,69.78
2018-06-13T10:15:11.281Z,68.63
2018-06-13T10:16:16.815Z,68.63
2018-06-13T10:17:22.323Z,69.30
2018-06-13T10:18:27.836Z,69.68
2018-06-13T10:19:33.346Z,69.40
2018-06-13T10:20:39.866Z,69.97
2018-06-13T10:21:44.381Z,69.30
2018-06-13T10:22:49.901Z,69.78
2018-06-13T10:23:55.408Z,69.49
2018-06-13T10:25:00.923Z,69.20
2018-06-13T10:26:06.433Z,69.40
2018-06-13T10:27:12.962Z,69.30
2018-06-13T10:28:17.470Z,69.59
2018-06-13T10:29:22.990Z,68.73
2018-06-13T10:30:28.517Z,68.88
2018-06-13T10:31:34.026Z,69.59
2018-06-13T10:32:39.537Z,70.26
2018-06-13T10:33:46.076Z,69.87
2018-06-13T10:34:50.576Z,68.73
2018-06-13T10:35:56.081Z,69.20
2018-06-13T10:37:01.593Z,69.40
2018-06-13T10:38:07.109Z,68.91
2018-06-13T10:39:12.622Z,69.49
2018-06-13T10:40:19.151Z,69.97
2018-06-13T10:41:23.657Z,68.63
2018-06-13T10:42:29.169Z,69.01
2018-06-13T10:43:34.690Z,67.76
2018-06-13T10:44:40.199Z,68.15
2018-06-13T10:45:45.715Z,69.20
2018-06-13T10:46:52.248Z,69.59
2018-06-13T10:47:56.745Z,69.24
2018-06-13T10:49:02.271Z,69.43
2018-06-13T10:50:07.782Z,68.95
2018-06-13T10:51:13.307Z,68.66
2018-06-13T10:52:18.808Z,68.08
2018-06-13T10:53:25.331Z,68.18
2018-06-13T10:54:29.853Z,68.08
2018-06-13T10:55:35.407Z,67.61
2018-06-13T10:56:40.877Z,67.22
2018-06-13T10:57:46.392Z,67.51
2018-06-13T10:58:51.910Z,66.58
2018-06-13T10:59:58.437Z,67.13
2018-06-13T11:01:02.944Z,67.07
2018-06-13T11:02:08.451Z,66.93
2018-06-13T11:03:13.968Z,68.28
2018-06-13T11:04:19.483Z,67.13
2018-06-13T11:05:24.986Z,67.41
2018-06-13T11:06:31.496Z,66.84
2018-06-13T11:07:36.113Z,67.13
2018-06-13T11:08:41.561Z,67.22
2018-06-13T11:09:47.064Z,66.16
2018-06-13T11:10:52.594Z,67.86
2018-06-13T11:11:58.100Z,67.86
2018-06-13T11:13:04.622Z,67.57
2018-06-13T11:14:09.144Z,68.24
2018-06-13T11:15:14.646Z,68.73
2018-06-13T11:16:20.167Z,68.59
2018-06-13T11:17:25.696Z,69.46
2018-06-13T11:18:31.212Z,68.02
2018-06-13T11:19:37.717Z,68.12
2018-06-13T11:20:42.231Z,68.21
2018-06-13T11:21:47.746Z,67.16
2018-06-13T11:22:53.248Z,68.30
2018-06-13T11:23:58.786Z,68.95
2018-06-13T11:25:04.301Z,68.85
2018-06-13T11:26:10.863Z,69.33
2018-06-13T11:27:15.319Z,69.42
2018-06-13T11:28:20.841Z,69.52
2018-06-13T11:29:26.361Z,69.23
2018-06-13T11:30:31.871Z,69.90
2018-06-13T11:31:37.415Z,69.33
2018-06-13T11:32:43.924Z,69.29
2018-06-13T11:33:48.413Z,69.39
2018-06-13T11:34:53.940Z,70.06
2018-06-13T11:35:59.433Z,69.52
2018-06-13T11:37:04.976Z,68.81
2018-06-13T11:38:10.478Z,68.33
2018-06-13T11:39:17.932Z,69.58
2018-06-13T11:40:21.526Z,69.20
2018-06-13T11:41:27.047Z,70.25
2018-06-13T11:42:32.554Z,69.81
2018-06-13T11:43:38.081Z,69.13
2018-06-13T11:44:43.566Z,69.52
2018-06-13T11:45:50.231Z,69.81
2018-06-13T11:46:54.683Z,68.75
2018-06-13T11:48:00.130Z,69.62
2018-06-13T11:49:05.653Z,68.95
2018-06-13T11:50:11.252Z,68.85
2018-06-13T11:51:16.660Z,68.85
2018-06-13T11:52:23.186Z,67.60
2018-06-13T11:53:27.716Z,67.60
2018-06-13T11:54:33.216Z,68.21
2018-06-13T11:55:38.708Z,68.21
2018-06-13T11:56:44.245Z,66.77
2018-06-13T11:57:49.749Z,67.12
2018-06-13T11:58:56.279Z,67.89
2018-06-13T12:00:00.790Z,66.58
2018-06-13T12:01:06.300Z,66.00
2018-06-13T12:02:11.866Z,66.83
2018-06-13T12:03:17.475Z,66.67
2018-06-13T12:04:22.840Z,68.21
2018-06-13T12:05:29.366Z,66.86
2018-06-13T12:06:33.839Z,66.86
2018-06-13T12:07:39.401Z,65.72
2018-06-13T12:08:44.882Z,65.91
2018-06-13T12:09:50.414Z,68.05
2018-06-13T12:10:56.062Z,66.80
2018-06-13T12:12:02.551Z,66.03
2018-06-13T12:13:06.969Z,64.50
2018-06-13T12:14:12.476Z,64.59
2018-06-13T12:15:18.031Z,64.98
2018-06-13T12:16:23.581Z,64.59
2018-06-13T12:17:29.036Z,64.59
2018-06-13T12:18:35.604Z,64.69
2018-06-13T12:19:40.089Z,64.79
2018-06-13T12:20:45.591Z,65.75
2018-06-13T12:21:51.113Z,64.79
2018-06-13T12:22:56.627Z,63.64
2018-06-13T12:24:02.131Z,67.09
2018-06-13T12:25:08.692Z,66.42
2018-06-13T12:26:13.160Z,66.71
2018-06-13T12:27:18.679Z,67.80
2018-06-13T12:28:24.178Z,67.22
2018-06-13T12:29:29.698Z,66.26
2018-06-13T12:30:35.217Z,65.75
2018-06-13T12:31:41.808Z,64.31
2018-06-13T12:32:46.320Z,64.69
2018-06-13T12:33:51.772Z,65.94
2018-06-13T12:34:57.278Z,66.33
2018-06-13T12:36:02.818Z,64.89
2018-06-13T12:37:08.318Z,63.25
2018-06-13T12:38:14.835Z,64.22
2018-06-13T12:39:19.341Z,65.46
2018-06-13T12:40:24.871Z,65.20
2018-06-13T12:41:30.380Z,64.25
2018-06-13T12:42:35.934Z,64.25
2018-06-13T12:43:41.415Z,64.43
2018-06-13T12:44:47.930Z,63.19
2018-06-13T12:45:52.437Z,64.05
2018-06-13T12:46:57.961Z,62.71
2018-06-13T12:48:03.472Z,63.48
2018-06-13T12:49:08.984Z,63.09
2018-06-13T12:50:14.494Z,62.99
2018-06-13T12:51:21.022Z,64.92
2018-06-13T12:52:25.536Z,63.38
2018-06-13T12:53:31.045Z,62.42
2018-06-13T12:54:36.564Z,63.06
2018-06-13T12:55:42.082Z,63.16
2018-06-13T12:56:47.684Z,64.72
2018-06-13T12:57:54.120Z,65.40
2018-06-13T12:58:58.707Z,64.53
2018-06-13T13:00:04.142Z,64.05
2018-06-13T13:01:09.659Z,62.99
2018-06-13T13:02:15.179Z,62.61
2018-06-13T13:03:20.693Z,62.52
2018-06-13T13:04:27.249Z,63.28
2018-06-13T13:05:31.728Z,62.99
2018-06-13T13:06:37.239Z,62.42
2018-06-13T13:07:42.755Z,63.28
2018-06-13T13:08:48.264Z,63.57
2018-06-13T13:09:53.792Z,63.48
2018-06-13T13:11:00.330Z,64.34
2018-06-13T13:12:04.834Z,64.25
2018-06-13T13:13:10.470Z,64.05
2018-06-13T13:14:15.846Z,64.34
2018-06-13T13:15:21.369Z,64.72
2018-06-13T13:16:26.896Z,63.09
2018-06-13T13:17:33.419Z,63.38
2018-06-13T13:18:37.928Z,64.43
2018-06-13T13:19:43.429Z,65.11
2018-06-13T13:20:48.961Z,63.57
2018-06-13T13:21:54.458Z,63.57
2018-06-13T13:22:59.978Z,62.99
2018-06-13T13:24:06.505Z,62.52
2018-06-13T13:25:11.015Z,61.94
2018-06-13T13:26:16.529Z,63.09
2018-06-13T13:27:22.061Z,62.90
2018-06-13T13:28:27.608Z,63.09
2018-06-13T13:29:33.078Z,63.19
2018-06-13T13:30:39.618Z,61.17
2018-06-13T13:31:44.110Z,60.40
2018-06-13T13:32:49.632Z,60.40
2018-06-13T13:33:55.189Z,60.31
2018-06-13T13:35:00.661Z,61.49
2018-06-13T13:36:06.174Z,62.45
2018-06-13T13:37:12.705Z,61.68
2018-06-13T13:38:17.204Z,60.53
2018-06-13T13:39:22.742Z,59.95
2018-06-13T13:40:28.237Z,60.05
2018-06-13T13:41:33.758Z,59.95
2018-06-13T13:42:39.277Z,60.82
2018-06-13T13:43:45.797Z,62.07
2018-06-13T13:44:50.308Z,61.81
2018-06-13T13:45:55.890Z,59.76
2018-06-13T13:47:01.338Z,59.76
2018-06-13T13:48:06.848Z,61.61
2018-06-13T13:49:12.362Z,61.61
2018-06-13T13:50:18.907Z,60.27
2018-06-13T13:51:23.394Z,59.99
2018-06-13T13:52:28.923Z,58.83
2018-06-13T13:53:34.437Z,57.39
2018-06-13T13:54:39.965Z,57.84
2018-06-13T13:55:45.482Z,58.73
2018-06-13T13:56:51.990Z,58.06
2018-06-13T13:57:56.497Z,58.15
2018-06-13T13:59:02.015Z,58.83
2018-06-13T14:00:07.554Z,57.10
2018-06-13T14:01:13.047Z,57.20
2018-06-13T14:02:18.563Z,57.51
2018-06-13T14:03:25.096Z,57.42